Time;durP1;ratioP1;P1;durP2;ratioP2;P2;SDS_P1;SDS_P2;PMS_P1;PMS_P2;Temp;Humidity;BMP_temperature;BMP_pressure;BME280_temperature;BME280_humidity;BME280_pressure;Samples;Min_cycle;Max_cycle;Signal;HPM_P1;HPM_P2
2022/12/28 00:01:25;;;;;;;8.33;5.90;;;;;;;;;;10543388;28;20047;-78
2022/12/28 00:06:26;;;;;;;9.73;6.43;;;;;;;;;;10554195;28;20054;-79
2022/12/28 00:11:27;;;;;;;14.35;8.15;;;;;;;;;;10554199;28;20036;-79
2022/12/28 00:16:29;;;;;;;12.60;7.93;;;;;;;;;;10561427;28;20081;-79
2022/12/28 00:21:29;;;;;;;12.95;7.18;;;;;;;;;;10534110;28;20084;-81
2022/12/28 00:26:31;;;;;;;13.02;8.05;;;;;;;;;;10530106;28;20043;-81
2022/12/28 00:31:32;;;;;;;11.73;6.97;;;;;;;;;;10558084;28;20036;-79
2022/12/28 00:36:33;;;;;;;10.57;6.70;;;;;;;;;;10556351;28;20027;-79
2022/12/28 00:41:34;;;;;;;11.27;6.22;;;;;;;;;;10573200;28;20028;-81
2022/12/28 00:46:36;;;;;;;10.57;6.55;;;;;;;;;;10568849;27;20072;-78
2022/12/28 00:51:38;;;;;;;13.25;6.00;;;;;;;;;;10586632;27;20028;-78
2022/12/28 00:56:39;;;;;;;11.63;6.20;;;;;;;;;;10561686;28;20036;-78
2022/12/28 01:01:39;;;;;;;8.48;5.72;;;;;;;;;;10579874;28;20046;-78
2022/12/28 01:06:40;;;;;;;11.23;6.00;;;;;;;;;;10540483;28;20051;-78
2022/12/28 01:11:40;;;;;;;13.77;6.55;;;;;;;;;;10557477;28;20391;-77
2022/12/28 01:16:41;;;;;;;11.20;6.85;;;;;;;;;;10563024;28;20494;-78
2022/12/28 01:21:42;;;;;;;13.05;6.53;;;;;;;;;;10534244;28;20046;-80
2022/12/28 01:26:43;;;;;;;11.48;6.50;;;;;;;;;;10539439;28;20451;-79
2022/12/28 01:31:44;;;;;;;12.38;6.53;;;;;;;;;;10542923;28;20040;-78
2022/12/28 01:36:46;;;;;;;13.63;6.80;;;;;;;;;;10562811;28;20092;-80
2022/12/28 01:41:46;;;;;;;11.15;7.03;;;;;;;;;;10556886;28;20032;-80
2022/12/28 01:46:52;;;;;;;11.27;7.15;;;;;;;;;;10554548;28;20036;-81
2022/12/28 01:51:52;;;;;;;10.32;7.03;;;;;;;;;;10555155;28;20031;-80
2022/12/28 01:56:53;;;;;;;14.83;7.23;;;;;;;;;;10541137;28;20063;-78
2022/12/28 02:01:53;;;;;;;13.57;7.13;;;;;;;;;;10543920;28;20821;-81
2022/12/28 02:06:54;;;;;;;10.73;6.25;;;;;;;;;;10555202;28;20057;-80
2022/12/28 02:11:55;;;;;;;9.98;6.75;;;;;;;;;;10552885;28;20033;-77
2022/12/28 02:16:55;;;;;;;15.43;7.40;;;;;;;;;;10559494;28;20073;-77
2022/12/28 02:22:14;;;;;;;12.55;7.82;;;;;;;;;;10553808;28;20039;-78
2022/12/28 02:27:33;;;;;;;12.73;7.28;;;;;;;;;;10549588;28;20059;-78
2022/12/28 02:32:34;;;;;;;11.43;7.22;;;;;;;;;;10558713;28;20043;-80
2022/12/28 02:37:41;;;;;;;13.90;7.75;;;;;;;;;;10553222;28;20040;-81
2022/12/28 02:42:43;;;;;;;11.40;7.63;;;;;;;;;;10552323;28;20039;-80
2022/12/28 02:53:13;;;;;;;15.07;8.70;;;;;;;;;;10553723;28;20492;-80
2022/12/28 02:58:13;;;;;;;16.65;9.27;;;;;;;;;;10554959;28;20040;-81
2022/12/28 03:03:20;;;;;;;16.88;9.57;;;;;;;;;;10531330;28;20391;-81
2022/12/28 03:08:39;;;;;;;18.73;10.18;;;;;;;;;;10536325;28;20710;-82
2022/12/28 03:13:45;;;;;;;18.80;10.02;;;;;;;;;;10559133;28;20101;-80
2022/12/28 03:35:09;;;;;;;24.48;14.30;;;;;;;;;;10539201;28;20039;-80
2022/12/28 03:40:28;;;;;;;24.38;13.45;;;;;;;;;;10560713;28;20031;-81
2022/12/28 03:45:35;;;;;;;26.83;14.60;;;;;;;;;;10564984;28;20450;-79
2022/12/28 03:50:38;;;;;;;23.73;13.90;;;;;;;;;;10534567;28;20048;-80
2022/12/28 03:55:39;;;;;;;25.42;14.52;;;;;;;;;;10528747;28;20160;-79
2022/12/28 04:00:40;;;;;;;25.45;15.35;;;;;;;;;;10540958;28;20040;-78
2022/12/28 04:05:41;;;;;;;24.67;14.35;;;;;;;;;;10536854;28;20044;-78
2022/12/28 04:10:41;;;;;;;25.90;13.90;;;;;;;;;;10553321;28;20028;-80
2022/12/28 04:15:42;;;;;;;24.02;14.00;;;;;;;;;;10535604;28;20035;-79
2022/12/28 04:20:43;;;;;;;22.38;13.18;;;;;;;;;;10542128;28;20032;-80
2022/12/28 04:25:57;;;;;;;24.73;14.25;;;;;;;;;;10542386;28;20085;-80
2022/12/28 04:30:59;;;;;;;27.45;15.18;;;;;;;;;;10569935;28;20047;-80
2022/12/28 04:36:05;;;;;;;27.30;14.93;;;;;;;;;;10549383;28;20036;-79
2022/12/28 04:41:07;;;;;;;25.63;14.70;;;;;;;;;;10537778;28;20036;-82
2022/12/28 04:46:11;;;;;;;25.67;15.02;;;;;;;;;;10546848;28;20048;-81
2022/12/28 04:51:20;;;;;;;26.88;15.13;;;;;;;;;;10549199;28;20036;-79
2022/12/28 04:56:24;;;;;;;24.42;14.93;;;;;;;;;;10531870;28;20408;-80
2022/12/28 05:01:25;;;;;;;28.73;15.68;;;;;;;;;;10552529;28;20029;-79
2022/12/28 05:06:26;;;;;;;22.90;14.02;;;;;;;;;;10546034;28;20125;-80
2022/12/28 05:11:27;;;;;;;24.67;15.13;;;;;;;;;;10556419;28;20052;-84
2022/12/28 05:16:28;;;;;;;30.98;13.88;;;;;;;;;;10562970;28;20031;-78
2022/12/28 05:21:28;;;;;;;23.55;12.93;;;;;;;;;;10515760;28;20403;-77
2022/12/28 05:26:29;;;;;;;22.80;13.65;;;;;;;;;;10545869;28;20134;-78
2022/12/28 05:31:29;;;;;;;24.23;14.55;;;;;;;;;;10540411;28;20040;-78
2022/12/28 05:36:32;;;;;;;21.87;12.70;;;;;;;;;;10535989;28;20512;-77
2022/12/28 05:41:32;;;;;;;22.70;12.50;;;;;;;;;;10536679;28;20778;-79
2022/12/28 05:46:33;;;;;;;21.92;12.80;;;;;;;;;;10568095;28;20108;-80
2022/12/28 05:51:34;;;;;;;24.23;13.98;;;;;;;;;;10554505;28;20038;-79
2022/12/28 05:56:34;;;;;;;23.95;13.68;;;;;;;;;;10545349;28;20511;-78
2022/12/28 06:01:36;;;;;;;21.85;13.60;;;;;;;;;;10563177;28;20047;-80
2022/12/28 06:06:36;;;;;;;24.45;12.85;;;;;;;;;;10539980;28;20040;-80
2022/12/28 06:11:37;;;;;;;22.15;12.45;;;;;;;;;;10561364;28;20737;-79
2022/12/28 06:16:39;;;;;;;22.98;12.65;;;;;;;;;;10547771;28;20399;-79
2022/12/28 06:21:39;;;;;;;20.63;12.60;;;;;;;;;;10571719;28;20050;-78
2022/12/28 06:26:40;;;;;;;18.63;11.27;;;;;;;;;;10554756;28;20050;-78
2022/12/28 06:31:43;;;;;;;21.60;11.77;;;;;;;;;;10549544;28;20036;-77
2022/12/28 06:36:44;;;;;;;22.90;12.23;;;;;;;;;;10516469;28;20702;-79
2022/12/28 06:41:44;;;;;;;22.55;13.35;;;;;;;;;;10550160;28;20169;-81
2022/12/28 06:46:45;;;;;;;19.50;12.27;;;;;;;;;;10547390;28;20044;-79
2022/12/28 06:51:45;;;;;;;22.33;13.70;;;;;;;;;;10542133;28;20317;-80
2022/12/28 06:56:46;;;;;;;19.60;13.38;;;;;;;;;;10558783;28;20119;-79
2022/12/28 07:01:46;;;;;;;19.85;12.45;;;;;;;;;;10538170;28;20714;-79
2022/12/28 07:06:46;;;;;;;22.10;12.53;;;;;;;;;;10553323;28;20046;-80
2022/12/28 07:11:48;;;;;;;22.70;12.10;;;;;;;;;;10527820;28;20388;-79
2022/12/28 07:16:49;;;;;;;23.02;12.52;;;;;;;;;;10554624;28;20044;-79
2022/12/28 07:21:49;;;;;;;20.40;12.10;;;;;;;;;;10538494;28;20476;-79
2022/12/28 07:26:49;;;;;;;24.48;13.65;;;;;;;;;;10555698;28;20035;-79
2022/12/28 07:31:50;;;;;;;25.70;13.45;;;;;;;;;;10557217;27;20578;-78
2022/12/28 07:36:50;;;;;;;21.52;12.23;;;;;;;;;;10558788;28;20117;-77
2022/12/28 07:41:51;;;;;;;24.25;12.88;;;;;;;;;;10563671;28;20411;-78
2022/12/28 07:46:55;;;;;;;21.88;12.00;;;;;;;;;;10545253;28;20046;-74
2022/12/28 07:51:56;;;;;;;21.85;12.20;;;;;;;;;;10532830;28;20048;-78
2022/12/28 07:56:56;;;;;;;22.88;12.98;;;;;;;;;;10555469;28;20036;-76
2022/12/28 08:01:57;;;;;;;19.77;12.63;;;;;;;;;;10547767;28;20418;-74
2022/12/28 08:06:57;;;;;;;22.08;12.43;;;;;;;;;;10533206;28;20044;-79
2022/12/28 08:11:57;;;;;;;21.50;11.57;;;;;;;;;;10561298;28;20111;-78
2022/12/28 08:16:58;;;;;;;22.07;12.67;;;;;;;;;;10531435;28;20746;-80
2022/12/28 08:21:58;;;;;;;18.77;11.97;;;;;;;;;;10551762;28;20969;-79
2022/12/28 08:26:58;;;;;;;19.52;12.60;;;;;;;;;;10557480;27;20318;-80
2022/12/28 08:31:59;;;;;;;21.70;11.95;;;;;;;;;;10560365;28;20042;-79
2022/12/28 08:37:00;;;;;;;21.33;11.90;;;;;;;;;;10546138;28;20062;-80
2022/12/28 08:42:03;;;;;;;21.08;11.65;;;;;;;;;;10556013;28;20068;-80
2022/12/28 08:47:06;;;;;;;19.55;11.55;;;;;;;;;;10540522;28;20046;-81
2022/12/28 08:52:07;;;;;;;19.50;11.68;;;;;;;;;;10543679;28;20051;-79
2022/12/28 08:57:07;;;;;;;18.65;10.90;;;;;;;;;;10539711;28;20032;-79
2022/12/28 09:02:11;;;;;;;19.37;11.10;;;;;;;;;;10528336;28;20052;-81
2022/12/28 09:07:11;;;;;;;17.15;10.70;;;;;;;;;;10561994;28;20305;-82
2022/12/28 09:12:11;;;;;;;20.52;10.90;;;;;;;;;;10567857;28;20036;-80
2022/12/28 09:17:15;;;;;;;16.75;10.43;;;;;;;;;;10603245;27;20015;-80
2022/12/28 09:22:17;;;;;;;15.43;9.80;;;;;;;;;;10591559;27;20119;-81
2022/12/28 09:27:17;;;;;;;17.90;10.43;;;;;;;;;;10574862;28;20048;-80
2022/12/28 09:32:20;;;;;;;15.77;9.88;;;;;;;;;;10550173;28;20718;-80
2022/12/28 09:37:22;;;;;;;15.17;9.80;;;;;;;;;;10546713;28;20036;-79
2022/12/28 09:42:27;;;;;;;14.00;9.13;;;;;;;;;;10556718;28;20039;-80
2022/12/28 09:47:34;;;;;;;15.02;8.55;;;;;;;;;;10558947;28;20043;-77
2022/12/28 09:52:58;;;;;;;15.00;9.68;;;;;;;;;;10568717;28;20044;-81
2022/12/28 09:57:59;;;;;;;14.18;8.57;;;;;;;;;;10574660;28;20702;-80
2022/12/28 10:03:06;;;;;;;15.07;9.20;;;;;;;;;;10568613;28;20023;-80
2022/12/28 10:08:10;;;;;;;12.82;8.68;;;;;;;;;;10576063;28;20143;-80
2022/12/28 10:13:21;;;;;;;16.33;8.97;;;;;;;;;;10550128;27;20031;-80
2022/12/28 10:18:23;;;;;;;13.38;8.57;;;;;;;;;;10567943;27;20047;-79
2022/12/28 10:23:25;;;;;;;13.68;8.20;;;;;;;;;;10550010;27;20129;-77
2022/12/28 10:28:30;;;;;;;16.38;8.60;;;;;;;;;;10545867;27;20130;-77
2022/12/28 10:33:31;;;;;;;12.43;8.05;;;;;;;;;;10542869;28;20054;-79
2022/12/28 10:38:32;;;;;;;12.32;8.00;;;;;;;;;;10556493;28;20032;-79
2022/12/28 10:43:34;;;;;;;13.95;8.05;;;;;;;;;;10536719;28;20032;-79
2022/12/28 10:48:36;;;;;;;14.07;8.98;;;;;;;;;;10558389;28;20040;-80
2022/12/28 10:53:44;;;;;;;10.27;7.13;;;;;;;;;;10556403;28;20035;-79
2022/12/28 10:58:46;;;;;;;8.93;6.30;;;;;;;;;;10559824;28;20032;-79
2022/12/28 11:03:59;;;;;;;10.75;6.32;;;;;;;;;;10555924;28;20472;-77
2022/12/28 11:09:35;;;;;;;11.93;7.78;;;;;;;;;;10555009;28;20052;-80
2022/12/28 11:14:36;;;;;;;10.05;6.40;;;;;;;;;;10443345;27;20059;-79
2022/12/28 11:19:37;;;;;;;7.97;4.65;;;;;;;;;;10597100;27;20079;-77
2022/12/28 11:24:41;;;;;;;9.35;5.32;;;;;;;;;;10541595;28;20059;-79
2022/12/28 11:29:42;;;;;;;;;;;;;;;;;;10610402;27;20049;-79
2022/12/28 11:34:44;;;;;;;8.38;5.10;;;;;;;;;;10563227;27;20020;-79
2022/12/28 11:39:46;;;;;;;8.50;5.00;;;;;;;;;;10584052;28;20484;-79
2022/12/28 11:44:49;;;;;;;7.57;4.50;;;;;;;;;;10586747;27;20039;-80
2022/12/28 11:49:50;;;;;;;7.03;4.43;;;;;;;;;;10634587;27;20125;-78
2022/12/28 11:54:52;;;;;;;6.10;4.07;;;;;;;;;;10570962;27;20146;-81
2022/12/28 12:00:12;;;;;;;7.00;3.78;;;;;;;;;;10550685;28;20165;-79
2022/12/28 12:05:32;;;;;;;4.93;3.78;;;;;;;;;;10551939;28;20040;-79
2022/12/28 12:10:34;;;;;;;4.68;3.70;;;;;;;;;;10542428;28;20039;-80
2022/12/28 12:15:40;;;;;;;5.68;4.05;;;;;;;;;;10551316;28;20048;-80
2022/12/28 12:20:53;;;;;;;4.75;3.60;;;;;;;;;;10559170;28;20030;-83
2022/12/28 12:25:56;;;;;;;5.53;3.60;;;;;;;;;;10530472;28;20514;-79
2022/12/28 12:30:58;;;;;;;5.07;3.50;;;;;;;;;;10523231;28;20276;-81
2022/12/28 12:36:30;;;;;;;4.82;3.30;;;;;;;;;;10561536;28;20086;-79
2022/12/28 12:41:34;;;;;;;5.25;3.50;;;;;;;;;;10470808;28;20066;-80
2022/12/28 12:46:37;;;;;;;5.68;3.50;;;;;;;;;;10549866;28;20060;-84
2022/12/28 12:51:38;;;;;;;;;;;;;;;;;;10564069;28;20074;-78
2022/12/28 12:56:51;;;;;;;5.72;3.28;;;;;;;;;;10541296;28;20010;-78
2022/12/28 13:01:51;;;;;;;7.28;4.47;;;;;;;;;;10545775;28;20083;-78
2022/12/28 13:06:55;;;;;;;5.37;3.90;;;;;;;;;;10568984;28;20047;-80
2022/12/28 13:11:57;;;;;;;7.20;3.47;;;;;;;;;;10561097;28;20277;-79
2022/12/28 13:16:59;;;;;;;5.03;3.60;;;;;;;;;;10546250;28;20131;-78
2022/12/28 13:22:02;;;;;;;6.07;3.88;;;;;;;;;;10586816;28;20031;-79
2022/12/28 13:27:16;;;;;;;6.05;3.80;;;;;;;;;;10521177;28;20083;-78
2022/12/28 13:32:27;;;;;;;4.77;3.70;;;;;;;;;;10530165;28;20043;-79
2022/12/28 13:37:28;;;;;;;5.53;4.05;;;;;;;;;;10539020;28;20304;-81
2022/12/28 13:42:34;;;;;;;4.03;2.90;;;;;;;;;;10535431;28;20040;-78
2022/12/28 13:47:37;;;;;;;5.10;3.78;;;;;;;;;;10538591;28;20493;-77
2022/12/28 13:52:39;;;;;;;4.13;3.17;;;;;;;;;;10591807;28;20160;-82
2022/12/28 13:57:41;;;;;;;4.35;3.55;;;;;;;;;;10527354;28;20051;-80
2022/12/28 14:02:44;;;;;;;3.77;3.00;;;;;;;;;;10561284;28;20027;-80
2022/12/28 14:07:45;;;;;;;5.53;3.60;;;;;;;;;;10536694;28;20060;-79
2022/12/28 14:12:46;;;;;;;5.55;4.07;;;;;;;;;;10552157;28;20148;-80
2022/12/28 14:17:48;;;;;;;5.78;3.55;;;;;;;;;;10555741;28;20687;-79
2022/12/28 14:22:51;;;;;;;6.13;2.95;;;;;;;;;;10559120;27;20047;-77
2022/12/28 14:27:54;;;;;;;5.13;3.65;;;;;;;;;;10564582;28;20532;-83
2022/12/28 14:32:55;;;;;;;4.68;3.42;;;;;;;;;;10540179;27;20059;-79
2022/12/28 14:38:00;;;;;;;7.75;4.53;;;;;;;;;;10579434;27;20110;-77
2022/12/28 14:43:07;;;;;;;5.53;4.07;;;;;;;;;;10559133;27;20194;-77
2022/12/28 14:48:26;;;;;;;8.50;5.03;;;;;;;;;;10554407;27;20046;-80
2022/12/28 14:53:28;;;;;;;8.88;4.65;;;;;;;;;;10535802;28;20043;-83
2022/12/28 14:58:32;;;;;;;6.57;4.80;;;;;;;;;;10561741;27;20043;-82
2022/12/28 15:03:47;;;;;;;7.03;4.72;;;;;;;;;;10547046;28;20395;-78
2022/12/28 15:08:49;;;;;;;4.93;3.67;;;;;;;;;;10557426;27;20111;-79
2022/12/28 15:13:49;;;;;;;7.40;4.45;;;;;;;;;;10563448;28;20063;-80
2022/12/28 15:18:50;;;;;;;5.07;3.65;;;;;;;;;;10555165;28;20036;-80
2022/12/28 15:23:52;;;;;;;5.20;4.03;;;;;;;;;;10608030;28;20035;-77
2022/12/28 15:28:52;;;;;;;7.22;4.40;;;;;;;;;;10541623;28;20112;-78
2022/12/28 15:33:53;;;;;;;5.07;4.22;;;;;;;;;;10540387;28;20126;-79
2022/12/28 15:38:55;;;;;;;3.95;3.47;;;;;;;;;;10520858;27;20417;-78
2022/12/28 15:43:56;;;;;;;3.67;3.00;;;;;;;;;;10522971;28;20471;-79
2022/12/28 15:48:56;;;;;;;3.90;3.50;;;;;;;;;;10534399;28;20051;-78
2022/12/28 15:53:58;;;;;;;3.38;3.08;;;;;;;;;;10595975;28;20091;-79
2022/12/28 15:59:01;;;;;;;4.97;3.00;;;;;;;;;;10611147;27;20369;-79
2022/12/28 16:04:02;;;;;;;4.93;2.93;;;;;;;;;;10546062;28;20048;-82
2022/12/28 16:09:03;;;;;;;5.57;3.80;;;;;;;;;;10556735;27;20055;-75
2022/12/28 16:14:04;;;;;;;5.15;3.45;;;;;;;;;;10550852;28;20027;-75
2022/12/28 16:19:05;;;;;;;4.13;3.40;;;;;;;;;;10560874;28;20491;-77
2022/12/28 16:24:06;;;;;;;4.78;3.55;;;;;;;;;;10552641;28;20119;-76
2022/12/28 16:29:07;;;;;;;5.72;4.00;;;;;;;;;;10563702;28;20046;-78
2022/12/28 16:34:15;;;;;;;6.28;4.30;;;;;;;;;;10533893;28;20813;-74
2022/12/28 16:39:16;;;;;;;5.03;4.03;;;;;;;;;;10561839;28;20040;-76
2022/12/28 16:44:18;;;;;;;6.95;3.88;;;;;;;;;;10571083;28;20542;-78
2022/12/28 16:49:18;;;;;;;6.50;4.00;;;;;;;;;;10531453;28;20048;-78
2022/12/28 16:54:20;;;;;;;4.85;3.65;;;;;;;;;;10552210;28;20032;-77
2022/12/28 16:59:24;;;;;;;4.18;3.53;;;;;;;;;;10545839;28;20036;-75
2022/12/28 17:04:25;;;;;;;5.10;4.05;;;;;;;;;;10555527;28;20567;-77
2022/12/28 17:09:27;;;;;;;3.90;3.50;;;;;;;;;;10549551;28;20043;-78
2022/12/28 17:14:27;;;;;;;5.30;4.57;;;;;;;;;;10538286;28;20143;-77
2022/12/28 17:19:29;;;;;;;6.35;4.35;;;;;;;;;;10547833;28;20165;-78
2022/12/28 17:24:30;;;;;;;5.45;3.92;;;;;;;;;;10546082;28;20036;-78
2022/12/28 17:29:31;;;;;;;6.68;4.50;;;;;;;;;;10550089;28;20044;-81
2022/12/28 17:34:32;;;;;;;8.13;4.10;;;;;;;;;;10566837;28;20039;-80
2022/12/28 17:39:33;;;;;;;6.33;4.30;;;;;;;;;;10541221;28;20114;-78
2022/12/28 17:44:33;;;;;;;9.77;7.50;;;;;;;;;;10583694;28;20286;-77
2022/12/28 17:49:34;;;;;;;7.00;5.80;;;;;;;;;;10594361;27;20051;-79
2022/12/28 17:54:35;;;;;;;7.85;3.67;;;;;;;;;;10603378;28;20067;-75
2022/12/28 17:59:35;;;;;;;6.70;3.72;;;;;;;;;;10580683;28;20039;-77
2022/12/28 18:04:35;;;;;;;4.72;3.72;;;;;;;;;;10561817;28;20042;-76
2022/12/28 18:09:36;;;;;;;5.70;4.13;;;;;;;;;;10557722;28;20521;-79
2022/12/28 18:14:36;;;;;;;5.18;3.63;;;;;;;;;;10536791;28;20593;-80
2022/12/28 18:19:38;;;;;;;5.57;3.83;;;;;;;;;;10552108;28;20114;-80
2022/12/28 18:24:40;;;;;;;5.50;3.50;;;;;;;;;;10560275;28;20028;-78
2022/12/28 18:29:41;;;;;;;5.85;3.53;;;;;;;;;;10541192;28;20122;-79
2022/12/28 18:34:41;;;;;;;5.25;3.90;;;;;;;;;;10559353;27;20043;-80
2022/12/28 18:39:42;;;;;;;5.03;4.03;;;;;;;;;;10583523;27;20034;-77
2022/12/28 18:44:42;;;;;;;7.05;2.88;;;;;;;;;;10552425;27;20277;-77
2022/12/28 18:49:43;;;;;;;4.97;3.33;;;;;;;;;;10536697;27;20407;-79
2022/12/28 18:54:43;;;;;;;5.75;3.90;;;;;;;;;;10541136;28;20036;-79
2022/12/28 18:59:45;;;;;;;5.20;3.72;;;;;;;;;;10551193;27;20031;-78
2022/12/28 19:04:46;;;;;;;6.97;4.30;;;;;;;;;;10557603;27;20455;-79
2022/12/28 19:15:06;;;;;;;7.80;4.28;;;;;;;;;;10541361;27;20667;-80
2022/12/28 19:20:06;;;;;;;5.80;4.10;;;;;;;;;;10539626;28;20217;-82
2022/12/28 19:25:12;;;;;;;6.95;3.65;;;;;;;;;;10585772;27;20086;-83
2022/12/28 19:30:13;;;;;;;5.10;4.00;;;;;;;;;;10562245;27;20076;-78
2022/12/28 19:35:14;;;;;;;5.57;3.90;;;;;;;;;;10534775;28;20140;-79
2022/12/28 19:40:15;;;;;;;5.65;4.05;;;;;;;;;;10513161;28;20031;-81
2022/12/28 19:45:17;;;;;;;5.82;4.35;;;;;;;;;;10512181;28;20035;-80
2022/12/28 19:50:21;;;;;;;4.23;3.33;;;;;;;;;;10517819;28;20097;-86
2022/12/28 19:55:22;;;;;;;;;;;;;;;;;;10536728;28;20037;-83
2022/12/28 20:00:23;;;;;;;4.00;3.53;;;;;;;;;;10516000;28;19951;-82
2022/12/28 20:05:24;;;;;;;6.05;4.20;;;;;;;;;;10524044;28;20042;-77
2022/12/28 20:10:25;;;;;;;4.47;3.95;;;;;;;;;;10508727;28;20435;-80
2022/12/28 20:15:25;;;;;;;4.65;3.22;;;;;;;;;;10449539;28;20071;-79
2022/12/28 20:20:25;;;;;;;5.13;3.50;;;;;;;;;;10444925;28;20124;-79
2022/12/28 20:25:27;;;;;;;5.13;4.07;;;;;;;;;;10470691;28;20038;-81
2022/12/28 20:30:29;;;;;;;6.75;4.43;;;;;;;;;;10460476;28;20354;-78
2022/12/28 20:35:30;;;;;;;6.28;4.22;;;;;;;;;;10446947;28;20493;-77
2022/12/28 20:40:30;;;;;;;6.97;4.03;;;;;;;;;;10450025;28;20044;-81
2022/12/28 20:45:34;;;;;;;6.03;4.15;;;;;;;;;;10444716;28;20032;-79
2022/12/28 20:50:35;;;;;;;5.65;3.97;;;;;;;;;;10468645;28;20036;-79
2022/12/28 20:55:37;;;;;;;5.23;3.40;;;;;;;;;;10471663;28;20041;-78
2022/12/28 21:00:38;;;;;;;4.80;3.65;;;;;;;;;;10459753;28;20323;-82
2022/12/28 21:05:38;;;;;;;5.15;3.85;;;;;;;;;;10485296;28;20037;-78
2022/12/28 21:10:39;;;;;;;5.83;4.10;;;;;;;;;;10447742;28;20136;-79
2022/12/28 21:15:40;;;;;;;5.18;3.95;;;;;;;;;;10477741;28;20314;-81
2022/12/28 21:20:44;;;;;;;5.43;4.22;;;;;;;;;;10465017;28;20491;-78
2022/12/28 21:25:46;;;;;;;4.65;3.30;;;;;;;;;;10464193;28;20528;-82
2022/12/28 21:30:51;;;;;;;5.97;4.10;;;;;;;;;;10450494;28;20059;-79
2022/12/28 21:35:55;;;;;;;4.65;3.70;;;;;;;;;;10477893;28;20109;-81
2022/12/28 21:40:57;;;;;;;6.05;4.07;;;;;;;;;;10449792;28;20044;-78
2022/12/28 21:46:02;;;;;;;5.55;3.95;;;;;;;;;;10465206;28;20024;-80
2022/12/28 21:51:30;;;;;;;5.28;4.05;;;;;;;;;;10467102;28;20103;-81
2022/12/28 21:56:32;;;;;;;6.97;4.60;;;;;;;;;;10486191;28;20033;-79
2022/12/28 22:06:52;;;;;;;3.88;3.47;;;;;;;;;;10476068;28;20049;-81
2022/12/28 22:17:12;;;;;;;4.85;3.70;;;;;;;;;;10484747;28;20039;-81
2022/12/28 22:22:12;;;;;;;5.05;3.63;;;;;;;;;;10504748;28;20039;-78
2022/12/28 22:27:13;;;;;;;6.28;4.35;;;;;;;;;;10474451;28;20053;-79
2022/12/28 22:32:13;;;;;;;3.92;3.53;;;;;;;;;;10469538;28;20041;-79
2022/12/28 22:37:14;;;;;;;4.30;3.10;;;;;;;;;;10478640;28;20405;-80
2022/12/28 22:42:14;;;;;;;6.00;3.60;;;;;;;;;;10473143;28;20112;-80
2022/12/28 22:47:14;;;;;;;4.72;3.13;;;;;;;;;;10466555;28;20319;-79
2022/12/28 22:52:15;;;;;;;4.30;2.95;;;;;;;;;;10470470;28;20041;-78
2022/12/28 22:57:15;;;;;;;3.17;2.67;;;;;;;;;;10467491;28;20124;-80
2022/12/28 23:02:16;;;;;;;5.40;3.53;;;;;;;;;;10475353;28;20032;-79
2022/12/28 23:07:16;;;;;;;4.80;3.20;;;;;;;;;;10477672;28;20563;-79
2022/12/28 23:12:17;;;;;;;4.88;3.25;;;;;;;;;;10462897;28;20305;-79
2022/12/28 23:17:17;;;;;;;4.50;3.00;;;;;;;;;;10467882;28;20037;-79
2022/12/28 23:27:40;;;;;;;3.92;2.60;;;;;;;;;;10470066;28;20086;-80
2022/12/28 23:32:41;;;;;;;3.45;2.55;;;;;;;;;;10477731;28;20052;-79
2022/12/28 23:37:41;;;;;;;3.75;2.80;;;;;;;;;;10472332;28;20413;-79
2022/12/28 23:42:42;;;;;;;3.15;2.67;;;;;;;;;;10466304;28;20497;-78
2022/12/28 23:47:43;;;;;;;2.70;2.40;;;;;;;;;;10459711;28;20076;-81
2022/12/28 23:52:44;;;;;;;2.78;2.17;;;;;;;;;;10468795;28;20033;-79
2022/12/28 23:57:44;;;;;;;3.40;2.08;;;;;;;;;;10471903;28;20503;-79
